Time;durP1;ratioP1;P1;durP2;ratioP2;P2;SDS_P1;SDS_P2;PMS_P1;PMS_P2;Temp;Humidity;BMP_temperature;BMP_pressure;BME280_temperature;BME280_humidity;BME280_pressure;Samples;Min_cycle;Max_cycle;Signal;HPM_P1;HPM_P2
2024/04/12 00:02:15;;;;;;;12.90;5.82;;;;;;;16.08;100.00;103213.69;5635362;26;19999;-73
2024/04/12 00:04:45;;;;;;;10.50;5.80;;;;;;;16.08;100.00;103208.25;5636539;26;19995;-73
2024/04/12 00:07:16;;;;;;;9.98;6.25;;;;;;;16.09;100.00;103205.41;5635886;26;20003;-73
2024/04/12 00:09:52;;;;;;;8.73;5.28;;;;;;;16.09;100.00;103199.97;5634929;26;20014;-74
2024/04/12 00:12:26;;;;;;;;;;;;;;;16.11;100.00;103197.13;5635222;26;20374;-73
2024/04/12 00:15:01;;;;;;;10.13;5.07;;;;;;;16.10;100.00;103190.00;5634688;26;20039;-73
2024/04/12 00:17:32;;;;;;;9.43;5.15;;;;;;;16.11;100.00;103189.00;5635317;26;20003;-73
2024/04/12 00:20:04;;;;;;;11.38;5.50;;;;;;;16.12;100.00;103194.28;5633262;26;19995;-73
2024/04/12 00:22:38;;;;;;;10.07;4.82;;;;;;;16.11;100.00;103199.81;5634753;26;20006;-73
2024/04/12 00:25:12;;;;;;;10.50;5.28;;;;;;;16.08;100.00;103187.44;5634079;26;20009;-73
2024/04/12 00:27:43;;;;;;;13.73;5.65;;;;;;;16.07;100.00;103191.16;5635087;26;19998;-73
2024/04/12 00:30:37;;;;;;;10.10;5.85;;;;;;;16.06;100.00;103184.00;5633310;26;20002;-73
2024/04/12 00:33:10;;;;;;;12.93;5.80;;;;;;;16.05;100.00;103183.16;5633520;26;20027;-72
2024/04/12 00:35:45;;;;;;;13.10;7.05;;;;;;;16.00;100.00;103176.47;5634583;26;20076;-73
2024/04/12 00:38:16;;;;;;;14.82;7.53;;;;;;;16.01;100.00;103178.19;5632874;26;20007;-73
2024/04/12 00:40:52;;;;;;;15.95;8.48;;;;;;;16.02;100.00;103171.78;5634723;26;20007;-73
2024/04/12 00:43:27;;;;;;;16.02;8.85;;;;;;;16.03;100.00;103176.22;5632982;26;20013;-72
2024/04/12 00:45:58;;;;;;;18.90;9.73;;;;;;;16.03;100.00;103166.22;5633425;26;19995;-73
2024/04/12 00:48:29;;;;;;;19.10;10.23;;;;;;;15.99;100.00;103161.25;5633747;26;20648;-73
2024/04/12 00:51:01;;;;;;;21.23;9.90;;;;;;;16.02;100.00;103163.66;5630962;26;20003;-73
2024/04/12 00:53:34;;;;;;;18.55;10.93;;;;;;;16.02;100.00;103163.66;5634149;26;20003;-73
2024/04/12 00:56:13;;;;;;;19.55;10.57;;;;;;;16.00;100.00;103160.25;5634079;26;20436;-73
2024/04/12 00:58:44;;;;;;;19.70;10.90;;;;;;;16.00;100.00;103157.53;5632735;26;20034;-73
2024/04/12 01:01:16;;;;;;;25.08;11.82;;;;;;;16.00;100.00;103160.25;5634783;26;20013;-73
2024/04/12 01:03:47;;;;;;;21.80;11.50;;;;;;;16.00;100.00;103146.69;5627292;26;20011;-73
2024/04/12 01:06:18;;;;;;;26.38;12.00;;;;;;;15.98;100.00;103149.56;5634280;26;20003;-73
2024/04/12 01:08:51;;;;;;;24.05;12.13;;;;;;;15.99;100.00;103145.84;5632845;26;20452;-74
2024/04/12 01:11:22;;;;;;;23.00;12.25;;;;;;;15.99;100.00;103143.16;5632707;26;20300;-73
2024/04/12 01:13:53;;;;;;;23.05;11.57;;;;;;;15.98;100.00;103135.19;5635033;26;20002;-73
2024/04/12 01:16:24;;;;;;;23.55;12.98;;;;;;;15.91;100.00;103134.88;5634564;26;20313;-73
2024/04/12 01:18:55;;;;;;;24.58;11.07;;;;;;;15.93;100.00;103129.34;5633263;26;20002;-73
2024/04/12 01:21:26;;;;;;;25.52;12.20;;;;;;;15.95;100.00;103132.75;5633734;26;20045;-73
2024/04/12 01:23:57;;;;;;;27.15;12.82;;;;;;;15.96;100.00;103129.88;5634342;26;20010;-74
2024/04/12 01:26:28;;;;;;;26.88;12.27;;;;;;;15.95;100.00;103122.78;5634305;26;20151;-73
2024/04/12 01:28:58;;;;;;;24.40;11.73;;;;;;;15.92;100.00;103120.38;5632252;26;19995;-75
2024/04/12 01:31:30;;;;;;;28.92;12.98;;;;;;;15.92;100.00;103117.69;5634811;26;20027;-75
2024/04/12 01:34:02;;;;;;;28.58;13.18;;;;;;;15.91;100.00;103109.69;5634428;26;20009;-74
2024/04/12 01:36:33;;;;;;;31.00;12.23;;;;;;;15.88;100.00;103105.44;5635021;26;20799;-73
2024/04/12 01:39:04;;;;;;;27.80;12.77;;;;;;;15.87;100.00;103103.72;5628749;26;20009;-74
2024/04/12 01:41:34;;;;;;;30.02;13.65;;;;;;;15.90;100.00;103107.97;5634865;26;20010;-73
2024/04/12 01:44:12;;;;;;;29.15;13.75;;;;;;;15.92;100.00;103106.00;5633719;26;19999;-74
2024/04/12 01:46:43;;;;;;;31.45;13.52;;;;;;;15.92;100.00;103103.28;5634408;26;20444;-73
2024/04/12 01:49:15;;;;;;;27.30;13.43;;;;;;;15.93;100.00;103105.00;5631181;26;20002;-74
2024/04/12 01:51:47;;;;;;;30.00;14.15;;;;;;;15.91;100.00;103097.00;5634265;26;20055;-73
2024/04/12 01:54:18;;;;;;;32.17;12.77;;;;;;;15.92;100.00;103101.44;5634085;26;19995;-74
2024/04/12 01:56:50;;;;;;;27.60;13.40;;;;;;;15.92;100.00;103100.59;5634182;26;19999;-74
2024/04/12 01:59:21;;;;;;;33.67;13.98;;;;;;;15.91;100.00;103099.69;5632154;26;20055;-74
2024/04/12 02:01:54;;;;;;;31.02;13.05;;;;;;;15.90;100.00;103089.03;5634528;26;20010;-73
2024/04/12 02:04:34;;;;;;;26.67;13.33;;;;;;;15.91;100.00;103104.25;5626274;26;20085;-73
2024/04/12 02:07:05;;;;;;;27.75;13.90;;;;;;;15.91;100.00;103109.69;5633442;26;20003;-73
2024/04/12 02:09:40;;;;;;;26.92;13.52;;;;;;;15.89;100.00;103103.56;5632839;26;20335;-73
2024/04/12 02:12:10;;;;;;;33.60;14.70;;;;;;;15.89;100.00;103100.88;5633301;26;20002;-75
2024/04/12 02:14:42;;;;;;;28.38;13.30;;;;;;;15.88;100.00;103100.00;5634632;26;20480;-73
2024/04/12 02:17:13;;;;;;;27.88;13.80;;;;;;;15.89;100.00;103103.56;5632160;26;20477;-73
2024/04/12 02:19:46;;;;;;;30.38;13.38;;;;;;;15.91;100.00;103104.25;5631740;26;20007;-73
2024/04/12 02:22:19;;;;;;;30.60;13.95;;;;;;;15.90;100.00;103110.69;5633193;26;20018;-73
2024/04/12 02:24:51;;;;;;;29.33;13.35;;;;;;;15.90;100.00;103103.41;5633884;26;20006;-74
2024/04/12 02:27:22;;;;;;;35.25;13.98;;;;;;;15.89;100.00;103112.53;5633102;26;20087;-73
2024/04/12 02:29:57;;;;;;;24.77;13.13;;;;;;;15.90;100.00;103113.38;5631525;26;20006;-73
2024/04/12 02:32:28;;;;;;;27.63;13.38;;;;;;;15.90;100.00;103116.94;5633611;26;20007;-73
2024/04/12 02:34:59;;;;;;;27.13;13.15;;;;;;;15.91;100.00;103115.09;5631110;26;20075;-74
2024/04/12 02:37:29;;;;;;;28.00;12.45;;;;;;;15.89;100.00;103122.50;5633489;26;21002;-73
2024/04/12 02:40:06;;;;;;;27.80;12.27;;;;;;;15.89;100.00;103122.50;5632087;26;20010;-73
2024/04/12 02:42:37;;;;;;;27.15;11.95;;;;;;;15.89;100.00;103122.50;5626626;26;19994;-74
2024/04/12 02:45:07;;;;;;;27.10;11.90;;;;;;;15.88;100.00;103113.53;5633487;26;20003;-74
2024/04/12 02:47:40;;;;;;;27.08;11.93;;;;;;;15.86;100.00;103114.69;5633391;26;20013;-73
2024/04/12 02:50:11;;;;;;;23.02;11.18;;;;;;;15.84;100.00;103112.13;5628852;26;20584;-73
2024/04/12 02:52:41;;;;;;;29.65;12.85;;;;;;;15.83;100.00;103107.72;5633372;26;20006;-74
2024/04/12 02:55:13;;;;;;;23.00;10.40;;;;;;;15.82;100.00;103100.59;5633239;26;20017;-73
2024/04/12 02:57:45;;;;;;;23.77;11.57;;;;;;;15.78;100.00;103105.44;5628017;26;20014;-74
2024/04/12 03:00:22;;;;;;;23.83;11.15;;;;;;;15.77;100.00;103095.63;5631521;26;19999;-73
2024/04/12 03:02:53;;;;;;;23.55;10.57;;;;;;;15.79;100.00;103092.75;5632859;26;20030;-73
2024/04/12 03:05:24;;;;;;;22.35;10.88;;;;;;;15.79;100.00;103090.91;5633040;26;20015;-74
2024/04/12 03:07:55;;;;;;;29.23;12.07;;;;;;;15.78;100.00;103094.63;5633278;26;20065;-73
2024/04/12 03:10:28;;;;;;;26.67;11.25;;;;;;;15.78;100.00;103089.22;5631608;26;20023;-73
2024/04/12 03:13:00;;;;;;;23.85;10.60;;;;;;;15.78;100.00;103089.22;5631477;26;20076;-74
2024/04/12 03:15:34;;;;;;;25.20;10.85;;;;;;;15.78;100.00;103083.78;5633191;26;19999;-73
2024/04/12 03:18:04;;;;;;;29.17;10.63;;;;;;;15.78;100.00;103081.09;5631175;26;20006;-74
2024/04/12 03:20:35;;;;;;;24.90;10.57;;;;;;;15.82;100.00;103078.09;5631641;26;19999;-73
2024/04/12 03:23:06;;;;;;;20.70;10.18;;;;;;;15.85;100.00;103084.06;5632057;26;20493;-73
2024/04/12 03:25:38;;;;;;;23.10;9.77;;;;;;;15.85;100.00;103080.50;5633956;26;20014;-74
2024/04/12 03:28:09;;;;;;;24.33;10.40;;;;;;;15.87;100.00;103083.94;5632115;26;20017;-74
2024/04/12 03:30:40;;;;;;;24.27;9.95;;;;;;;15.89;100.00;103080.06;5632169;26;20010;-74
2024/04/12 03:33:10;;;;;;;27.17;10.02;;;;;;;15.86;100.00;103079.50;5636033;26;20067;-73
2024/04/12 03:35:41;;;;;;;19.73;9.30;;;;;;;15.86;100.00;103077.63;5636904;26;20505;-73
2024/04/12 03:38:25;;;;;;;20.10;9.55;;;;;;;15.86;100.00;103077.63;5636185;26;19999;-74
2024/04/12 03:41:02;;;;;;;24.77;10.88;;;;;;;15.87;100.00;103075.81;5635628;26;20383;-73
2024/04/12 03:43:34;;;;;;;20.17;9.65;;;;;;;15.83;100.00;103075.25;5636197;26;20013;-73
2024/04/12 03:46:07;;;;;;;24.50;9.82;;;;;;;15.83;100.00;103079.81;5636430;26;20003;-74
2024/04/12 03:48:38;;;;;;;24.67;10.45;;;;;;;15.77;100.00;103070.41;5624073;26;20010;-74
2024/04/12 03:51:08;;;;;;;26.50;10.32;;;;;;;15.71;100.00;103076.38;5635174;26;20015;-74
2024/04/12 03:53:39;;;;;;;25.63;10.48;;;;;;;15.64;100.00;103078.84;5636791;26;19995;-73
2024/04/12 03:56:12;;;;;;;23.65;9.63;;;;;;;15.53;100.00;103071.72;5636209;26;20698;-73
2024/04/12 03:58:42;;;;;;;22.60;10.20;;;;;;;15.48;100.00;103071.28;5634958;26;20445;-74
2024/04/12 04:01:13;;;;;;;23.08;10.13;;;;;;;15.38;100.00;103073.16;5635715;26;20010;-73
2024/04/12 04:03:49;;;;;;;21.80;9.45;;;;;;;15.32;100.00;103065.63;5635729;26;19995;-73
2024/04/12 04:06:21;;;;;;;26.55;10.73;;;;;;;15.22;100.00;103068.34;5635140;26;20014;-73
2024/04/12 04:08:52;;;;;;;27.52;10.88;;;;;;;15.15;100.00;103067.19;5634252;26;19998;-73
2024/04/12 04:11:22;;;;;;;25.02;10.70;;;;;;;15.08;100.00;103063.34;5632620;26;20072;-73
2024/04/12 04:13:53;;;;;;;22.63;11.30;;;;;;;15.00;100.00;103058.63;5636049;26;20026;-73
2024/04/12 04:16:35;;;;;;;27.23;10.50;;;;;;;14.93;100.00;103062.06;5634937;26;20013;-73
2024/04/12 04:19:12;;;;;;;24.08;10.80;;;;;;;14.86;100.00;103069.00;5634284;26;19995;-74
2024/04/12 04:21:43;;;;;;;24.50;10.93;;;;;;;14.76;100.00;103060.91;5632586;26;20011;-74
2024/04/12 04:24:14;;;;;;;26.83;9.80;;;;;;;14.66;100.00;103066.31;5634685;26;19998;-73
2024/04/12 04:26:45;;;;;;;28.67;12.55;;;;;;;14.60;100.00;103074.09;5635870;26;20012;-73
2024/04/12 04:29:16;;;;;;;23.25;10.63;;;;;;;14.57;100.00;103069.84;5631257;26;20003;-73
2024/04/12 04:31:49;;;;;;;23.73;11.52;;;;;;;14.54;100.00;103063.84;5636429;26;20421;-74
2024/04/12 04:34:20;;;;;;;24.55;10.25;;;;;;;14.56;100.00;103072.66;5635015;26;20374;-73
2024/04/12 04:36:55;;;;;;;24.92;10.45;;;;;;;14.60;100.00;103074.09;5636065;26;20100;-75
2024/04/12 04:39:26;;;;;;;26.15;11.07;;;;;;;14.63;100.00;103069.28;5630550;26;19999;-73
2024/04/12 04:41:58;;;;;;;23.27;10.88;;;;;;;14.66;100.00;103070.81;5636041;26;20002;-73
2024/04/12 04:44:29;;;;;;;25.35;11.20;;;;;;;14.67;100.00;103073.41;5635467;26;20093;-73
2024/04/12 04:47:03;;;;;;;27.85;11.32;;;;;;;14.72;100.00;103078.41;5635244;26;20353;-73
2024/04/12 04:49:34;;;;;;;31.13;11.70;;;;;;;14.71;100.00;103074.00;5633060;26;20038;-73
2024/04/12 04:52:08;;;;;;;27.48;11.00;;;;;;;14.72;100.00;103075.69;5635634;26;20003;-73
2024/04/12 04:54:39;;;;;;;28.52;11.27;;;;;;;14.70;100.00;103075.81;5635420;26;20010;-73
2024/04/12 04:57:10;;;;;;;28.67;11.85;;;;;;;14.72;100.00;103071.13;5635240;26;20023;-74
2024/04/12 04:59:44;;;;;;;23.33;10.50;;;;;;;14.70;100.00;103078.50;5634089;26;20357;-73
2024/04/12 05:02:15;;;;;;;25.20;10.50;;;;;;;14.71;100.00;103076.69;5632073;26;19998;-73
2024/04/12 05:04:50;;;;;;;21.17;10.05;;;;;;;14.75;100.00;103076.25;5617213;26;20013;-74
2024/04/12 05:07:26;;;;;;;29.70;12.40;;;;;;;14.83;100.00;103082.81;5634302;26;20007;-74
2024/04/12 05:09:56;;;;;;;21.42;10.60;;;;;;;14.90;100.00;103081.25;5632951;26;20452;-74
2024/04/12 05:12:28;;;;;;;25.13;10.57;;;;;;;14.92;100.00;103076.56;5633058;26;19999;-73
2024/04/12 05:15:04;;;;;;;30.38;10.30;;;;;;;14.95;100.00;103069.03;5635032;26;20003;-73
2024/04/12 05:17:36;;;;;;;23.17;10.73;;;;;;;14.97;100.00;103077.00;5634086;26;19995;-73
2024/04/12 05:20:14;;;;;;;22.00;9.82;;;;;;;14.97;100.00;103077.84;5632774;26;20003;-74
2024/04/12 05:22:45;;;;;;;25.40;11.55;;;;;;;14.97;100.00;103066.19;5634460;26;20007;-74
2024/04/12 05:25:22;;;;;;;27.23;11.27;;;;;;;14.99;100.00;103067.75;5634627;26;19995;-73
2024/04/12 05:27:52;;;;;;;23.42;11.40;;;;;;;15.04;100.00;103067.31;5634567;26;20063;-73
2024/04/12 05:30:23;;;;;;;31.30;12.52;;;;;;;15.09;100.00;103070.44;5632894;26;20052;-73
2024/04/12 05:32:53;;;;;;;33.67;13.73;;;;;;;15.18;100.00;103075.00;5633899;26;20003;-73
2024/04/12 05:35:30;;;;;;;30.58;13.00;;;;;;;15.26;100.00;103071.56;5634968;26;20395;-74
2024/04/12 05:38:07;;;;;;;29.95;12.43;;;;;;;15.34;100.00;103077.13;5634811;26;20010;-73
2024/04/12 05:40:41;;;;;;;31.27;13.65;;;;;;;15.42;100.00;103077.28;5633383;26;20010;-73
2024/04/12 05:43:13;;;;;;;29.75;13.43;;;;;;;15.50;100.00;103073.84;5634320;26;20336;-75
2024/04/12 05:45:53;;;;;;;35.33;14.23;;;;;;;15.55;100.00;103077.81;5634170;26;20002;-74
2024/04/12 05:48:24;;;;;;;36.65;14.00;;;;;;;15.60;100.00;103063.84;5628772;26;20003;-73
2024/04/12 05:50:55;;;;;;;31.90;13.98;;;;;;;15.68;100.00;103058.63;5633800;26;20003;-73
2024/04/12 05:53:30;;;;;;;34.85;15.00;;;;;;;15.75;100.00;103062.44;5633062;26;20010;-73
2024/04/12 05:58:50;;;;;;;28.83;14.02;;;;;;;15.88;100.00;103072.94;5632477;26;20014;-73
2024/04/12 06:01:24;;;;;;;34.30;13.95;;;;;;;15.94;100.00;103069.63;5634708;26;20002;-74
2024/04/12 06:03:56;;;;;;;32.60;13.55;;;;;;;15.99;100.00;103069.19;5634433;26;20071;-74
2024/04/12 06:06:31;;;;;;;29.33;13.60;;;;;;;16.07;100.00;103072.03;5634668;26;20465;-73
2024/04/12 06:09:05;;;;;;;27.27;12.18;;;;;;;16.18;100.00;103060.16;5627544;26;19991;-73
2024/04/12 06:11:37;;;;;;;27.77;13.23;;;;;;;16.24;100.00;103063.09;5629604;26;20316;-74
2024/04/12 06:14:09;;;;;;;36.72;15.68;;;;;;;16.29;100.00;103058.09;5634022;26;19998;-73
2024/04/12 06:16:40;;;;;;;31.17;14.95;;;;;;;16.36;100.00;103057.47;5633203;26;19998;-73
2024/04/12 06:19:12;;;;;;;28.65;13.00;;;;;;;16.44;100.00;103063.84;5631620;26;20703;-73
2024/04/12 06:21:48;;;;;;;29.58;12.27;;;;;;;16.49;100.00;103066.13;5633481;26;20011;-74
2024/04/12 06:24:29;;;;;;;32.80;13.55;;;;;;;16.50;100.00;103070.53;5633369;26;20017;-75
2024/04/12 06:26:59;;;;;;;29.10;12.55;;;;;;;16.54;100.00;103075.50;5628837;26;20030;-73
2024/04/12 06:29:33;;;;;;;32.42;12.57;;;;;;;16.65;100.00;103076.28;5631464;26;19999;-73
2024/04/12 06:32:06;;;;;;;35.10;11.23;;;;;;;16.72;100.00;103074.72;5632178;26;19995;-74
2024/04/12 06:34:37;;;;;;;22.70;10.48;;;;;;;16.71;100.00;103090.09;5633426;26;20014;-73
2024/04/12 06:37:08;;;;;;;20.52;11.20;;;;;;;16.79;100.00;103083.94;5633689;26;19999;-73
2024/04/12 06:39:40;;;;;;;21.23;10.20;;;;;;;16.82;100.00;103084.50;5624752;26;20014;-74
2024/04/12 06:42:11;;;;;;;25.45;10.73;;;;;;;16.93;100.00;103078.00;5621645;26;19999;-74
2024/04/12 06:44:50;;;;;;;19.65;9.98;;;;;;;16.93;100.00;103086.13;5630706;26;20002;-74
2024/04/12 06:47:21;;;;;;;17.70;9.30;;;;;;;17.00;100.00;103081.78;5630630;26;20002;-73
2024/04/12 06:49:54;;;;;;;21.55;8.85;;;;;;;17.06;100.00;103085.72;5629171;26;19999;-73
2024/04/12 06:52:26;;;;;;;17.25;9.45;;;;;;;17.09;100.00;103094.41;5624636;26;20390;-74
2024/04/12 06:55:01;;;;;;;25.35;9.35;;;;;;;17.12;100.00;103086.97;5630165;26;20453;-73
2024/04/12 06:57:32;;;;;;;18.65;8.82;;;;;;;17.17;100.00;103085.50;5627082;26;19999;-73
2024/04/12 07:00:07;;;;;;;20.67;9.10;;;;;;;17.24;100.00;103086.56;5628623;26;20072;-74
2024/04/12 07:02:39;;;;;;;20.83;9.97;;;;;;;17.27;100.00;103078.13;5629598;26;20002;-74
2024/04/12 07:05:15;;;;;;;22.67;9.73;;;;;;;17.30;100.00;103091.38;5633067;26;20017;-74
2024/04/12 07:07:46;;;;;;;16.77;8.48;;;;;;;17.35;100.00;103101.75;5632659;26;20479;-74
2024/04/12 07:10:20;;;;;;;22.83;8.82;;;;;;;17.39;100.00;103084.16;5624436;26;19999;-75
2024/04/12 07:12:55;;;;;;;18.80;8.07;;;;;;;17.43;100.00;103090.97;5632886;26;20003;-74
2024/04/12 07:15:26;;;;;;;;;;;;;;;17.51;100.00;103090.19;5631481;26;19998;-74
2024/04/12 07:17:58;;;;;;;17.40;8.05;;;;;;;17.54;100.00;103088.00;5633128;26;19931;-73
2024/04/12 07:20:36;;;;;;;20.58;8.27;;;;;;;17.58;100.00;103094.00;5630362;26;19999;-74
2024/04/12 07:23:08;;;;;;;17.13;8.50;;;;;;;17.65;100.00;103091.47;5632511;26;19995;-74
2024/04/12 07:25:39;;;;;;;25.13;8.40;;;;;;;17.61;100.00;103089.06;5633458;26;20010;-74
2024/04/12 07:28:09;;;;;;;14.90;7.90;;;;;;;17.65;100.00;103092.34;5631323;26;20387;-74
2024/04/12 07:30:44;;;;;;;19.02;8.55;;;;;;;17.65;100.00;103095.03;5631419;26;20444;-74
2024/04/12 07:33:14;;;;;;;17.23;8.18;;;;;;;17.68;100.00;103100.16;5633014;26;20075;-74
2024/04/12 07:35:51;;;;;;;21.50;8.60;;;;;;;17.69;100.00;103099.16;5632452;26;20007;-74
2024/04/12 07:38:22;;;;;;;15.60;7.97;;;;;;;17.71;100.00;103105.25;5631781;26;20432;-74
2024/04/12 07:40:53;;;;;;;19.30;8.25;;;;;;;17.74;100.00;103107.69;5631622;26;20302;-73
2024/04/12 07:43:25;;;;;;;21.65;8.65;;;;;;;17.74;100.00;103113.13;5632310;26;20071;-73
2024/04/12 07:45:56;;;;;;;21.48;8.68;;;;;;;17.78;100.00;103103.66;5632799;26;19995;-74
2024/04/12 07:48:27;;;;;;;15.07;7.85;;;;;;;17.84;100.00;103108.44;5632395;26;20350;-74
2024/04/12 07:50:59;;;;;;;21.88;9.23;;;;;;;17.87;100.00;103093.69;5631113;26;20010;-74
2024/04/12 07:53:34;;;;;;;24.50;8.85;;;;;;;17.89;100.00;103094.41;5632645;26;20186;-74
2024/04/12 07:56:08;;;;;;;23.45;8.98;;;;;;;17.94;100.00;103093.91;5629930;26;20076;-74
2024/04/12 07:58:40;;;;;;;15.98;6.88;;;;;;;18.02;100.00;103088.53;5631718;26;20002;-74
2024/04/12 08:01:16;;;;;;;16.40;6.75;;;;;;;18.14;100.00;103089.09;5632274;26;20097;-74
2024/04/12 08:03:50;;;;;;;17.88;7.65;;;;;;;18.15;100.00;103099.81;5632891;26;20006;-74
2024/04/12 08:06:36;;;;;;;16.17;5.82;;;;;;;18.22;100.00;103089.97;5632763;26;19999;-74
2024/04/12 08:09:21;;;;;;;14.35;6.60;;;;;;;18.30;100.00;103095.47;5630810;26;20009;-74
2024/04/12 08:11:51;;;;;;;13.88;6.13;;;;;;;18.34;100.00;103099.56;5627376;26;20330;-74
2024/04/12 08:14:22;;;;;;;13.32;5.63;;;;;;;18.46;100.00;103093.81;5632051;26;20019;-74
2024/04/12 08:16:55;;;;;;;17.20;6.15;;;;;;;18.53;100.00;103086.75;5629996;26;19991;-74
2024/04/12 08:19:38;;;;;;;16.88;6.45;;;;;;;18.63;100.00;103090.16;5630071;26;20009;-74
2024/04/12 08:22:17;;;;;;;10.35;5.38;;;;;;;18.62;100.00;103085.72;5628578;26;20002;-73
2024/04/12 08:24:49;;;;;;;12.18;5.40;;;;;;;18.84;100.00;103084.31;5630812;26;20367;-74
2024/04/12 08:27:24;;;;;;;15.57;5.47;;;;;;;18.89;100.00;103090.09;5630433;26;19995;-74
2024/04/12 08:29:56;;;;;;;15.32;5.20;;;;;;;19.06;100.00;103082.78;5625339;26;20003;-74
2024/04/12 08:32:27;;;;;;;16.77;5.50;;;;;;;19.19;100.00;103091.31;5630901;26;19999;-74
2024/04/12 08:34:59;;;;;;;14.45;4.40;;;;;;;19.37;100.00;103092.00;5630507;26;20006;-74
2024/04/12 08:37:32;;;;;;;12.55;5.25;;;;;;;19.65;100.00;103105.28;5630701;26;20002;-75
2024/04/12 08:40:08;;;;;;;17.45;4.40;;;;;;;19.90;100.00;103104.22;5628631;26;20072;-74
2024/04/12 08:42:39;;;;;;;8.05;4.32;;;;;;;20.01;100.00;103099.44;5629462;26;20002;-74
2024/04/12 08:45:13;;;;;;;10.05;4.68;;;;;;;20.06;100.00;103097.03;5630656;26;20120;-74
2024/04/12 08:47:54;;;;;;;11.25;4.10;;;;;;;20.27;100.00;103102.75;5630788;26;20046;-74
2024/04/12 08:50:31;;;;;;;7.82;4.28;;;;;;;20.78;100.00;103099.66;5621321;26;20011;-74
2024/04/12 08:53:11;;;;;;;12.25;4.38;;;;;;;21.49;100.00;103090.28;5630848;26;19999;-74
2024/04/12 08:55:44;;;;;;;12.18;3.83;;;;;;;22.29;100.00;103088.75;5630047;26;20042;-74
2024/04/12 08:58:20;;;;;;;7.68;3.35;;;;;;;22.86;100.00;103088.00;5629130;26;20390;-74
2024/04/12 09:00:53;;;;;;;8.75;3.88;;;;;;;23.21;100.00;103086.28;5629122;26;20348;-74
2024/04/12 09:03:25;;;;;;;9.63;3.55;;;;;;;23.22;100.00;103087.97;5623395;26;20044;-74
2024/04/12 09:05:57;;;;;;;10.13;3.67;;;;;;;23.26;100.00;103079.16;5630554;26;20058;-74
2024/04/12 09:08:29;;;;;;;10.25;3.70;;;;;;;23.21;100.00;103084.38;5628806;26;20448;-74
2024/04/12 09:11:00;;;;;;;11.57;3.78;;;;;;;23.19;100.00;103083.75;5624076;26;20006;-74
2024/04/12 09:13:32;;;;;;;10.75;3.17;;;;;;;23.31;100.00;103078.59;5629469;26;20003;-75
2024/04/12 09:16:06;;;;;;;6.10;3.42;;;;;;;23.43;100.00;103089.84;5630783;26;20022;-74
2024/04/12 09:18:44;;;;;;;10.03;3.37;;;;;;;23.72;100.00;103089.69;5629527;26;20051;-75
2024/04/12 09:21:24;;;;;;;7.10;3.08;;;;;;;23.73;100.00;103091.38;5630240;26;20016;-74
2024/04/12 09:23:56;;;;;;;10.63;3.97;;;;;;;24.11;100.00;103093.72;5631057;26;19999;-74
2024/04/12 09:26:39;;;;;;;7.70;2.83;;;;;;;24.08;100.00;103093.28;5630437;26;20003;-75
2024/04/12 09:29:11;;;;;;;14.13;3.25;;;;;;;24.22;100.00;103089.56;5629985;26;20011;-75
2024/04/12 09:34:35;;;;;;;9.23;3.60;;;;;;;23.62;100.00;103093.78;5624393;26;19995;-73
2024/04/12 09:40:16;;;;;;;10.80;3.53;;;;;;;23.61;100.00;103094.84;5622320;26;19998;-74
2024/04/12 09:45:27;;;;;;;9.27;3.65;;;;;;;23.77;100.00;103098.16;5622596;26;19995;-72
2024/04/12 10:39:30;;;;;;;11.05;3.78;;;;;;;23.69;100.00;103072.78;5629960;26;20033;-73
2024/04/12 10:42:05;;;;;;;7.75;3.20;;;;;;;23.68;100.00;103068.34;5627298;26;20010;-73
2024/04/12 10:44:35;;;;;;;;;;;;;;;23.56;100.00;103079.00;5633122;26;20094;-73
2024/04/12 10:47:10;;;;;;;9.27;3.00;;;;;;;23.39;100.00;103074.84;5633118;26;19932;-73
2024/04/12 10:49:42;;;;;;;12.23;3.83;;;;;;;23.63;100.00;103082.66;5629766;26;20011;-73
2024/04/12 10:52:14;;;;;;;9.77;2.88;;;;;;;23.81;100.00;103075.84;5629375;26;20007;-73
2024/04/12 10:54:47;;;;;;;8.70;3.22;;;;;;;23.91;100.00;103074.44;5632504;26;20042;-73
2024/04/12 10:57:19;;;;;;;8.80;3.60;;;;;;;23.96;100.00;103062.84;5632537;26;20075;-75
2024/04/12 10:59:51;;;;;;;9.13;3.28;;;;;;;24.11;100.00;103071.81;5626393;26;20015;-73
2024/04/12 11:02:22;;;;;;;9.93;3.65;;;;;;;24.24;100.00;103073.75;5629657;26;19999;-72
2024/04/12 11:05:06;;;;;;;10.32;3.20;;;;;;;24.39;100.00;103069.00;5632622;26;20018;-74
2024/04/12 11:07:36;;;;;;;14.05;3.28;;;;;;;24.62;100.00;103067.81;5627365;26;20061;-73
2024/04/12 11:10:22;;;;;;;11.10;3.53;;;;;;;24.51;100.00;103067.38;5628139;26;20398;-73
2024/04/12 11:12:59;;;;;;;9.90;3.10;;;;;;;24.42;100.00;103065.84;5630007;26;20003;-74
2024/04/12 11:32:27;;;;;;;18.42;3.65;;;;;;;25.05;100.00;103047.22;5625170;26;19999;-73
2024/04/12 11:34:57;;;;;;;14.00;4.15;;;;;;;24.82;100.00;103056.91;5632208;26;20374;-72
2024/04/12 11:37:28;;;;;;;10.73;3.63;;;;;;;24.91;100.00;103051.00;5633155;26;20014;-72
2024/04/12 11:40:03;;;;;;;9.02;3.30;;;;;;;24.92;100.00;103047.19;5629048;26;20720;-72
2024/04/12 11:42:39;;;;;;;10.45;3.85;;;;;;;24.93;100.00;103048.88;5632115;26;19999;-72
2024/04/12 11:45:14;;;;;;;8.98;3.95;;;;;;;24.90;100.00;103048.44;5632436;26;20017;-72
2024/04/12 11:47:44;;;;;;;9.52;4.13;;;;;;;25.04;100.00;103044.66;5630115;26;20420;-72
2024/04/12 11:50:15;;;;;;;8.27;3.72;;;;;;;24.98;100.00;103053.75;5628590;26;19998;-72
2024/04/12 11:52:47;;;;;;;8.45;3.35;;;;;;;24.99;100.00;103047.19;5623151;26;20428;-72
2024/04/12 11:55:21;;;;;;;11.35;3.70;;;;;;;24.86;100.00;103038.97;5632259;26;20039;-73
2024/04/12 11:57:52;;;;;;;9.90;3.45;;;;;;;24.82;100.00;103040.41;5631554;26;20778;-73
2024/04/12 12:00:23;;;;;;;9.50;3.30;;;;;;;24.94;100.00;103034.09;5629480;26;20305;-72
2024/04/12 12:02:53;;;;;;;6.68;3.28;;;;;;;25.00;100.00;103030.53;5631032;26;20014;-73
2024/04/12 12:05:28;;;;;;;8.43;3.75;;;;;;;25.09;100.00;103030.34;5632898;26;20071;-73
2024/04/12 12:07:59;;;;;;;14.05;3.92;;;;;;;24.93;100.00;103023.31;5630814;26;20006;-73
2024/04/12 12:10:34;;;;;;;8.18;3.42;;;;;;;25.19;100.00;103022.53;5622156;26;20046;-72
2024/04/12 12:13:04;;;;;;;9.73;3.78;;;;;;;25.51;100.00;103024.41;5627834;26;20075;-73
2024/04/12 12:15:35;;;;;;;11.05;3.85;;;;;;;25.56;100.00;103027.38;5631556;26;20026;-74
2024/04/12 12:18:06;;;;;;;15.57;4.78;;;;;;;25.64;100.00;103037.28;5629507;26;20011;-72
2024/04/12 12:20:36;;;;;;;10.93;3.97;;;;;;;25.47;100.00;103025.91;5627066;26;20013;-73
2024/04/12 12:23:07;;;;;;;18.52;4.30;;;;;;;25.31;100.00;103020.84;5631685;26;20034;-72
2024/04/12 12:25:41;;;;;;;9.57;3.90;;;;;;;25.14;100.00;103017.66;5631500;26;20069;-72
2024/04/12 12:28:12;;;;;;;8.77;3.78;;;;;;;24.92;100.00;103022.47;5631456;26;19999;-73
2024/04/12 12:30:53;;;;;;;13.10;3.70;;;;;;;24.87;100.00;103029.66;5629396;26;20447;-73
2024/04/12 12:33:24;;;;;;;12.60;3.92;;;;;;;24.69;100.00;103027.50;5621869;26;19994;-74
2024/04/12 12:35:55;;;;;;;8.60;3.88;;;;;;;24.49;100.00;103009.09;5631691;26;20092;-74
2024/04/12 12:38:26;;;;;;;11.75;3.50;;;;;;;24.37;100.00;103004.44;5622208;26;20003;-74
2024/04/12 12:40:57;;;;;;;10.30;3.20;;;;;;;24.17;100.00;103010.66;5613142;26;20476;-73
2024/04/12 12:43:28;;;;;;;8.55;3.58;;;;;;;24.18;100.00;103006.00;5619014;26;20043;-73
2024/04/12 12:46:00;;;;;;;8.93;3.38;;;;;;;24.31;100.00;103006.06;5616737;26;19999;-73
2024/04/12 12:48:30;;;;;;;10.40;3.30;;;;;;;24.41;100.00;102995.59;5619749;26;20229;-73
2024/04/12 12:51:01;;;;;;;9.02;3.53;;;;;;;24.45;100.00;103005.09;5614541;26;19999;-73
2024/04/12 12:53:34;;;;;;;6.13;3.35;;;;;;;24.44;100.00;103010.78;5631304;26;20003;-73